EZY79EF EGPH-EGKK
Flight info
| Callsign | EZY79EF |
|---|---|
| Flight time | N/A |
| Altitude | 33000 |
| Route | GOSAM P600 FENIK L612 NAVSO DCT KEPAD L151 DISIT |
| Aircraft | A320/M-SDE3FGHIRWY/LB1 |
Departure
| Time | 2026-04-23 15:54 |
|---|---|
| Airport | Edinburgh Airport (EGPH) |
Arrival
| Time | N/A |
|---|---|
| Airport | London Gatwick Airport (EGKK) |
| Time | Latitude | Longitude | Altitude | Speed | Heading |
|---|---|---|---|---|---|
| 2026-04-23 15:31 | 55.94612 | -3.36627 | 117 ft | 0 kts | 89° |
| 2026-04-23 15:43 | 55.94612 | -3.36645 | 112 ft | 4 kts | 88° |
| 2026-04-23 15:43 | 55.94609 | -3.36694 | 112 ft | 4 kts | 71° |
| 2026-04-23 15:44 | 55.94599 | -3.36727 | 113 ft | 4 kts | 27° |
| 2026-04-23 15:44 | 55.94590 | -3.36733 | 113 ft | 0 kts | 359° |
| 2026-04-23 15:47 | 55.94593 | -3.36733 | 112 ft | 1 kts | 359° |
| 2026-04-23 15:48 | 55.94606 | -3.36734 | 113 ft | 4 kts | 359° |
| 2026-04-23 15:48 | 55.94643 | -3.36735 | 116 ft | 6 kts | 359° |
| 2026-04-23 15:48 | 55.94699 | -3.36736 | 116 ft | 10 kts | 359° |
| 2026-04-23 15:48 | 55.94769 | -3.36763 | 112 ft | 11 kts | 325° |
| 2026-04-23 15:49 | 55.94841 | -3.36777 | 116 ft | 11 kts | 359° |
| 2026-04-23 15:49 | 55.94911 | -3.36820 | 115 ft | 10 kts | 316° |
| 2026-04-23 15:49 | 55.94915 | -3.36925 | 114 ft | 9 kts | 242° |
| 2026-04-23 15:49 | 55.94884 | -3.37020 | 114 ft | 11 kts | 239° |
| 2026-04-23 15:50 | 55.94841 | -3.37146 | 114 ft | 12 kts | 239° |
| 2026-04-23 15:50 | 55.94799 | -3.37271 | 113 ft | 14 kts | 239° |
| 2026-04-23 15:50 | 55.94734 | -3.37462 | 115 ft | 22 kts | 239° |
| 2026-04-23 15:50 | 55.94645 | -3.37724 | 112 ft | 24 kts | 238° |
| 2026-04-23 15:51 | 55.94561 | -3.37970 | 114 ft | 23 kts | 237° |
| 2026-04-23 15:51 | 55.94489 | -3.38184 | 114 ft | 19 kts | 238° |
| 2026-04-23 15:51 | 55.94426 | -3.38371 | 114 ft | 17 kts | 239° |
| 2026-04-23 15:51 | 55.94369 | -3.38538 | 114 ft | 15 kts | 239° |
| 2026-04-23 15:52 | 55.94323 | -3.38675 | 115 ft | 12 kts | 238° |
| 2026-04-23 15:52 | 55.94290 | -3.38771 | 115 ft | 8 kts | 238° |
| 2026-04-23 15:52 | 55.94287 | -3.38857 | 114 ft | 7 kts | 303° |
| 2026-04-23 15:52 | 55.94323 | -3.38906 | 113 ft | 6 kts | 328° |
| 2026-04-23 15:53 | 55.94367 | -3.38954 | 114 ft | 9 kts | 329° |
| 2026-04-23 15:53 | 55.94411 | -3.38972 | 114 ft | 4 kts | 33° |
| 2026-04-23 15:53 | 55.94430 | -3.38928 | 113 ft | 5 kts | 57° |
| 2026-04-23 15:53 | 55.94432 | -3.38925 | 113 ft | 2 kts | 57° |
| 2026-04-23 15:54 | 55.94536 | -3.38618 | 112 ft | 67 kts | 59° |
| 2026-04-23 15:54 | 55.94897 | -3.37555 | 113 ft | 130 kts | 59° |
| 2026-04-23 15:54 | 55.95408 | -3.36004 | 540 ft | 147 kts | 59° |
| 2026-04-23 15:54 | 55.95948 | -3.34457 | 1340 ft | 149 kts | 55° |
| 2026-04-23 15:55 | 55.96739 | -3.33079 | 1722 ft | 174 kts | 41° |
| 2026-04-23 15:55 | 55.97718 | -3.31561 | 2167 ft | 194 kts | 42° |
| 2026-04-23 15:55 | 55.98769 | -3.29893 | 2644 ft | 215 kts | 43° |
| 2026-04-23 15:55 | 56.00065 | -3.28226 | 3147 ft | 241 kts | 20° |
| 2026-04-23 15:56 | 56.01760 | -3.28005 | 3662 ft | 261 kts | 344° |
| 2026-04-23 15:56 | 56.03334 | -3.29708 | 4466 ft | 266 kts | 308° |
| 2026-04-23 15:56 | 56.04090 | -3.32651 | 5394 ft | 267 kts | 276° |
| 2026-04-23 15:56 | 56.03960 | -3.35966 | 5786 ft | 267 kts | 255° |
| 2026-04-23 15:57 | 56.03351 | -3.39082 | 5922 ft | 264 kts | 246° |
| 2026-04-23 15:57 | 56.02626 | -3.42095 | 5985 ft | 264 kts | 245° |
| 2026-04-23 15:57 | 56.01917 | -3.45169 | 6019 ft | 264 kts | 248° |
| 2026-04-23 15:57 | 56.01282 | -3.48240 | 5998 ft | 264 kts | 249° |
| 2026-04-23 15:58 | 56.00712 | -3.51362 | 6005 ft | 265 kts | 251° |
| 2026-04-23 15:58 | 56.00202 | -3.54516 | 5988 ft | 265 kts | 254° |
| 2026-04-23 15:58 | 55.99735 | -3.57688 | 5992 ft | 265 kts | 254° |
| 2026-04-23 15:58 | 55.99282 | -3.60898 | 6000 ft | 265 kts | 254° |
| 2026-04-23 15:59 | 55.98845 | -3.64045 | 6004 ft | 265 kts | 255° |
| 2026-04-23 15:59 | 55.98544 | -3.66206 | 6003 ft | 264 kts | 254° |
| 2026-04-23 15:59 | 55.98299 | -3.67963 | 5996 ft | 264 kts | 255° |
| 2026-04-23 15:59 | 55.98294 | -3.68001 | 6010 ft | 264 kts | 255° |
| 2026-04-23 16:00 | 55.97849 | -3.71187 | 5994 ft | 264 kts | 255° |
| 2026-04-23 16:00 | 55.97398 | -3.74368 | 6005 ft | 264 kts | 254° |
| 2026-04-23 16:00 | 55.96943 | -3.77548 | 5989 ft | 265 kts | 254° |
| 2026-04-23 16:00 | 55.96485 | -3.80728 | 5987 ft | 264 kts | 254° |
| 2026-04-23 16:01 | 55.96025 | -3.83907 | 5992 ft | 264 kts | 254° |
| 2026-04-23 16:01 | 55.95561 | -3.87083 | 5989 ft | 265 kts | 254° |
| 2026-04-23 16:01 | 55.95122 | -3.90082 | 5987 ft | 264 kts | 253° |
| 2026-04-23 16:01 | 55.94972 | -3.91097 | 5982 ft | 264 kts | 253° |
| 2026-04-23 16:02 | 55.94509 | -3.94265 | 5988 ft | 265 kts | 254° |
| 2026-04-23 16:02 | 55.94006 | -3.97427 | 5994 ft | 265 kts | 248° |
| 2026-04-23 16:02 | 55.93199 | -4.00382 | 5984 ft | 266 kts | 237° |
| 2026-04-23 16:02 | 55.92070 | -4.02969 | 5979 ft | 264 kts | 225° |
| 2026-04-23 16:03 | 55.90670 | -4.05079 | 5988 ft | 263 kts | 214° |
| 2026-04-23 16:03 | 55.89172 | -4.06958 | 5983 ft | 263 kts | 214° |
| 2026-04-23 16:03 | 55.87673 | -4.08855 | 5980 ft | 264 kts | 215° |
| 2026-04-23 16:03 | 55.86179 | -4.10754 | 5982 ft | 264 kts | 215° |
| 2026-04-23 16:04 | 55.84683 | -4.12660 | 5985 ft | 264 kts | 215° |
| 2026-04-23 16:04 | 55.83375 | -4.14325 | 5985 ft | 264 kts | 215° |
| 2026-04-23 16:04 | 55.82642 | -4.15258 | 5991 ft | 264 kts | 215° |
| 2026-04-23 16:04 | 55.81150 | -4.17151 | 5982 ft | 263 kts | 215° |
| 2026-04-23 16:05 | 55.80167 | -4.18399 | 5973 ft | 263 kts | 215° |
| 2026-04-23 16:05 | 55.78168 | -4.20934 | 5975 ft | 264 kts | 215° |
| 2026-04-23 16:05 | 55.76664 | -4.22817 | 5985 ft | 264 kts | 214° |
| 2026-04-23 16:05 | 55.75181 | -4.24658 | 5980 ft | 264 kts | 214° |
| 2026-04-23 16:06 | 55.73630 | -4.26388 | 5987 ft | 263 kts | 204° |
| 2026-04-23 16:06 | 55.71885 | -4.27283 | 5985 ft | 263 kts | 187° |
| 2026-04-23 16:06 | 55.70053 | -4.27174 | 5979 ft | 264 kts | 169° |
| 2026-04-23 16:06 | 55.68328 | -4.26069 | 5990 ft | 265 kts | 152° |
| 2026-04-23 16:07 | 55.66719 | -4.24472 | 5985 ft | 265 kts | 152° |
| 2026-04-23 16:07 | 55.65110 | -4.22881 | 5973 ft | 264 kts | 152° |
| 2026-04-23 16:07 | 55.63498 | -4.21296 | 5979 ft | 265 kts | 152° |
| 2026-04-23 16:07 | 55.61870 | -4.19705 | 6573 ft | 269 kts | 152° |
| 2026-04-23 16:08 | 55.60781 | -4.18641 | 7230 ft | 272 kts | 152° |
| 2026-04-23 16:08 | 55.59112 | -4.17010 | 8173 ft | 275 kts | 152° |
| 2026-04-23 16:08 | 55.57421 | -4.15357 | 9151 ft | 279 kts | 153° |
| 2026-04-23 16:08 | 55.55718 | -4.13696 | 10141 ft | 281 kts | 153° |
| 2026-04-23 16:09 | 55.53392 | -4.11431 | 10965 ft | 301 kts | 153° |
| 2026-04-23 16:09 | 55.52118 | -4.10194 | 11187 ft | 318 kts | 153° |
| 2026-04-23 16:09 | 55.50116 | -4.08250 | 11550 ft | 337 kts | 152° |
| 2026-04-23 16:09 | 55.48031 | -4.06219 | 12216 ft | 345 kts | 152° |
| 2026-04-23 16:10 | 55.45915 | -4.04158 | 12987 ft | 350 kts | 152° |
| 2026-04-23 16:10 | 55.43765 | -4.02070 | 13738 ft | 356 kts | 152° |
| 2026-04-23 16:10 | 55.41584 | -3.99954 | 14462 ft | 361 kts | 152° |
| 2026-04-23 16:10 | 55.39368 | -3.97807 | 15159 ft | 365 kts | 152° |
| 2026-04-23 16:11 | 55.37135 | -3.95647 | 15870 ft | 368 kts | 152° |
| 2026-04-23 16:11 | 55.34877 | -3.93464 | 16564 ft | 372 kts | 152° |
| 2026-04-23 16:11 | 55.32600 | -3.91264 | 17290 ft | 374 kts | 152° |
| 2026-04-23 16:11 | 55.30313 | -3.89058 | 17992 ft | 377 kts | 151° |
| 2026-04-23 16:12 | 55.28033 | -3.86867 | 18624 ft | 381 kts | 151° |
| 2026-04-23 16:12 | 55.25661 | -3.84595 | 19238 ft | 384 kts | 152° |
| 2026-04-23 16:12 | 55.23307 | -3.82347 | 19794 ft | 387 kts | 152° |
| 2026-04-23 16:12 | 55.20818 | -3.80479 | 20323 ft | 391 kts | 161° |
| 2026-04-23 16:13 | 55.18262 | -3.78988 | 20876 ft | 394 kts | 162° |
| 2026-04-23 16:13 | 55.13025 | -3.75936 | 21966 ft | 400 kts | 162° |
| 2026-04-23 16:13 | 55.10365 | -3.74385 | 22473 ft | 405 kts | 162° |
| 2026-04-23 16:14 | 55.07683 | -3.72820 | 23003 ft | 408 kts | 162° |
| 2026-04-23 16:14 | 55.04997 | -3.71248 | 23496 ft | 411 kts | 162° |
| 2026-04-23 16:14 | 55.02256 | -3.69642 | 23990 ft | 415 kts | 162° |
| 2026-04-23 16:14 | 54.99504 | -3.68035 | 24416 ft | 418 kts | 162° |
| 2026-04-23 16:15 | 54.96736 | -3.66426 | 24826 ft | 421 kts | 162° |
| 2026-04-23 16:15 | 54.93942 | -3.64809 | 25220 ft | 425 kts | 162° |
| 2026-04-23 16:15 | 54.91130 | -3.63183 | 25587 ft | 428 kts | 162° |
| 2026-04-23 16:15 | 54.88290 | -3.61541 | 25979 ft | 431 kts | 162° |
| 2026-04-23 16:16 | 54.85431 | -3.59888 | 26358 ft | 434 kts | 162° |
| 2026-04-23 16:16 | 54.82559 | -3.58230 | 26739 ft | 437 kts | 162° |
| 2026-04-23 16:16 | 54.79660 | -3.56562 | 27108 ft | 440 kts | 162° |
| 2026-04-23 16:16 | 54.76741 | -3.54882 | 27507 ft | 443 kts | 162° |
| 2026-04-23 16:17 | 54.73806 | -3.53199 | 27875 ft | 446 kts | 162° |
| 2026-04-23 16:17 | 54.70848 | -3.51507 | 28250 ft | 448 kts | 162° |
| 2026-04-23 16:17 | 54.67884 | -3.49810 | 28608 ft | 451 kts | 161° |
| 2026-04-23 16:17 | 54.64876 | -3.48089 | 28973 ft | 454 kts | 161° |
| 2026-04-23 16:18 | 54.61885 | -3.46385 | 29293 ft | 457 kts | 161° |
| 2026-04-23 16:18 | 54.58848 | -3.44662 | 29619 ft | 459 kts | 161° |
| 2026-04-23 16:18 | 54.55803 | -3.42938 | 29937 ft | 462 kts | 161° |
| 2026-04-23 16:18 | 54.52743 | -3.41206 | 30258 ft | 465 kts | 161° |
| 2026-04-23 16:19 | 54.49667 | -3.39464 | 30561 ft | 467 kts | 161° |
| 2026-04-23 16:19 | 54.46571 | -3.37710 | 30823 ft | 469 kts | 161° |
| 2026-04-23 16:19 | 54.43465 | -3.35953 | 31167 ft | 470 kts | 161° |
| 2026-04-23 16:19 | 54.40394 | -3.34221 | 31503 ft | 470 kts | 161° |
| 2026-04-23 16:20 | 54.37290 | -3.32474 | 31859 ft | 470 kts | 161° |
| 2026-04-23 16:20 | 54.34183 | -3.30724 | 32205 ft | 470 kts | 161° |
| 2026-04-23 16:20 | 54.31073 | -3.28977 | 32568 ft | 470 kts | 161° |
| 2026-04-23 16:20 | 54.27962 | -3.27233 | 32915 ft | 470 kts | 162° |
| 2026-04-23 16:21 | 54.24853 | -3.25494 | 33265 ft | 471 kts | 162° |
| 2026-04-23 16:21 | 54.21740 | -3.23756 | 33413 ft | 470 kts | 162° |
| 2026-04-23 16:21 | 54.15540 | -3.20303 | 33428 ft | 468 kts | 161° |
| 2026-04-23 16:22 | 54.09344 | -3.16857 | 33428 ft | 468 kts | 161° |
| 2026-04-23 16:22 | 54.03168 | -3.13430 | 33429 ft | 467 kts | 161° |
| 2026-04-23 16:23 | 53.96981 | -3.10023 | 33430 ft | 467 kts | 162° |
| 2026-04-23 16:23 | 53.90803 | -3.06630 | 33426 ft | 467 kts | 161° |
| 2026-04-23 16:24 | 53.84618 | -3.03238 | 33425 ft | 467 kts | 161° |
| 2026-04-23 16:24 | 53.78437 | -2.99843 | 33424 ft | 467 kts | 161° |
| 2026-04-23 16:25 | 53.72243 | -2.96462 | 33424 ft | 467 kts | 162° |
| 2026-04-23 16:25 | 53.66059 | -2.93098 | 33420 ft | 468 kts | 162° |
| 2026-04-23 16:26 | 53.59855 | -2.89745 | 33418 ft | 469 kts | 162° |
| 2026-04-23 16:26 | 53.53624 | -2.86381 | 33417 ft | 469 kts | 162° |
| 2026-04-23 16:27 | 53.47455 | -2.83059 | 33418 ft | 469 kts | 162° |
| 2026-04-23 16:27 | 53.41238 | -2.79716 | 33405 ft | 469 kts | 162° |
| 2026-04-23 16:28 | 53.35011 | -2.76385 | 33411 ft | 469 kts | 162° |
| 2026-04-23 16:28 | 53.28785 | -2.73070 | 33412 ft | 469 kts | 162° |
| 2026-04-23 16:29 | 53.22564 | -2.69771 | 33410 ft | 469 kts | 162° |
| 2026-04-23 16:29 | 53.16332 | -2.66474 | 33411 ft | 469 kts | 162° |
| 2026-04-23 16:30 | 53.10102 | -2.63172 | 33410 ft | 470 kts | 162° |
| 2026-04-23 16:30 | 53.03870 | -2.59878 | 33413 ft | 470 kts | 162° |
| 2026-04-23 16:31 | 52.97632 | -2.56585 | 33423 ft | 470 kts | 162° |
| 2026-04-23 16:31 | 52.91428 | -2.53338 | 33411 ft | 471 kts | 162° |
| 2026-04-23 16:32 | 52.85170 | -2.50081 | 33425 ft | 471 kts | 162° |
| 2026-04-23 16:32 | 52.79165 | -2.45848 | 33416 ft | 470 kts | 147° |
| 2026-04-23 16:33 | 52.73727 | -2.39868 | 33409 ft | 470 kts | 145° |
| 2026-04-23 16:33 | 52.68285 | -2.33873 | 33394 ft | 471 kts | 145° |
| 2026-04-23 16:34 | 52.62827 | -2.27899 | 33390 ft | 472 kts | 145° |
| 2026-04-23 16:34 | 52.57359 | -2.21922 | 33408 ft | 472 kts | 145° |
| 2026-04-23 16:35 | 52.51886 | -2.15943 | 33385 ft | 473 kts | 145° |
| 2026-04-23 16:35 | 52.49148 | -2.12950 | 33138 ft | 474 kts | 145° |
| 2026-04-23 16:35 | 52.46384 | -2.09935 | 31769 ft | 480 kts | 145° |
| 2026-04-23 16:36 | 52.43578 | -2.06889 | 29940 ft | 488 kts | 144° |
| 2026-04-23 16:36 | 52.40759 | -2.03842 | 28871 ft | 483 kts | 144° |
| 2026-04-23 16:36 | 52.37993 | -2.00855 | 28230 ft | 470 kts | 144° |
| 2026-04-23 16:36 | 52.35292 | -1.97936 | 27410 ft | 462 kts | 144° |
| 2026-04-23 16:37 | 52.32633 | -1.95069 | 26664 ft | 452 kts | 144° |
| 2026-04-23 16:37 | 52.30025 | -1.92266 | 25920 ft | 445 kts | 144° |
| 2026-04-23 16:37 | 52.27457 | -1.89507 | 25342 ft | 439 kts | 144° |
| 2026-04-23 16:37 | 52.24923 | -1.86787 | 24772 ft | 434 kts | 144° |
| 2026-04-23 16:38 | 52.22444 | -1.84128 | 24181 ft | 429 kts | 144° |
| 2026-04-23 16:38 | 52.19965 | -1.81475 | 23529 ft | 424 kts | 144° |
| 2026-04-23 16:38 | 52.17509 | -1.78850 | 22916 ft | 419 kts | 144° |
| 2026-04-23 16:38 | 52.15084 | -1.76258 | 22318 ft | 414 kts | 144° |
| 2026-04-23 16:39 | 52.12695 | -1.73707 | 21743 ft | 408 kts | 144° |
| 2026-04-23 16:39 | 52.10334 | -1.71191 | 21179 ft | 403 kts | 144° |
| 2026-04-23 16:39 | 52.07997 | -1.68703 | 20629 ft | 398 kts | 144° |
| 2026-04-23 16:39 | 52.05696 | -1.66256 | 20101 ft | 393 kts | 144° |
| 2026-04-23 16:40 | 52.03424 | -1.63843 | 19589 ft | 388 kts | 144° |
| 2026-04-23 16:40 | 52.01180 | -1.61461 | 19023 ft | 384 kts | 144° |
| 2026-04-23 16:40 | 51.98961 | -1.59105 | 18484 ft | 379 kts | 144° |
| 2026-04-23 16:40 | 51.96759 | -1.56776 | 17913 ft | 376 kts | 144° |
| 2026-04-23 16:41 | 51.94577 | -1.54472 | 17349 ft | 372 kts | 144° |
| 2026-04-23 16:41 | 51.92417 | -1.52191 | 16800 ft | 369 kts | 144° |
| 2026-04-23 16:41 | 51.90279 | -1.49937 | 16269 ft | 366 kts | 144° |
| 2026-04-23 16:41 | 51.88152 | -1.47699 | 15745 ft | 363 kts | 144° |
| 2026-04-23 16:42 | 51.86041 | -1.45478 | 15428 ft | 362 kts | 144° |
| 2026-04-23 16:42 | 51.83923 | -1.43250 | 15375 ft | 363 kts | 144° |
| 2026-04-23 16:42 | 51.81801 | -1.41021 | 15384 ft | 364 kts | 144° |
| 2026-04-23 16:42 | 51.79673 | -1.38792 | 15399 ft | 364 kts | 144° |
| 2026-04-23 16:43 | 51.77548 | -1.36572 | 15382 ft | 364 kts | 144° |
| 2026-04-23 16:43 | 51.75413 | -1.34343 | 15386 ft | 365 kts | 144° |
| 2026-04-23 16:43 | 51.73284 | -1.32118 | 15376 ft | 365 kts | 144° |
| 2026-04-23 16:43 | 51.71160 | -1.29897 | 15373 ft | 364 kts | 144° |
| 2026-04-23 16:44 | 51.69031 | -1.27675 | 15372 ft | 365 kts | 144° |
| 2026-04-23 16:44 | 51.66896 | -1.25453 | 15382 ft | 365 kts | 144° |
| 2026-04-23 16:44 | 51.64766 | -1.23243 | 15383 ft | 365 kts | 144° |
| 2026-04-23 16:44 | 51.62625 | -1.21019 | 15373 ft | 365 kts | 144° |
| 2026-04-23 16:45 | 51.60494 | -1.18807 | 15386 ft | 365 kts | 144° |
| 2026-04-23 16:45 | 51.58359 | -1.16598 | 15393 ft | 365 kts | 144° |
| 2026-04-23 16:45 | 51.56222 | -1.14385 | 15396 ft | 365 kts | 144° |
| 2026-04-23 16:45 | 51.54092 | -1.12181 | 15381 ft | 364 kts | 144° |
| 2026-04-23 16:46 | 51.51963 | -1.09982 | 15379 ft | 364 kts | 144° |
| 2026-04-23 16:46 | 51.49840 | -1.07788 | 15001 ft | 361 kts | 144° |
| 2026-04-23 16:46 | 51.47739 | -1.05620 | 14508 ft | 357 kts | 144° |
| 2026-04-23 16:46 | 51.45658 | -1.03479 | 14007 ft | 354 kts | 144° |
| 2026-04-23 16:47 | 51.43589 | -1.01353 | 13442 ft | 352 kts | 144° |
| 2026-04-23 16:47 | 51.41535 | -0.99244 | 12864 ft | 349 kts | 144° |
| 2026-04-23 16:47 | 51.39494 | -0.97150 | 12443 ft | 348 kts | 144° |
| 2026-04-23 16:47 | 51.37451 | -0.95061 | 12358 ft | 349 kts | 144° |
| 2026-04-23 16:48 | 51.35397 | -0.92964 | 12376 ft | 350 kts | 144° |
| 2026-04-23 16:48 | 51.33386 | -0.90914 | 11945 ft | 346 kts | 144° |
| 2026-04-23 16:48 | 51.31364 | -0.88851 | 11387 ft | 343 kts | 144° |
| 2026-04-23 16:48 | 51.29365 | -0.86812 | 10858 ft | 339 kts | 144° |
| 2026-04-23 16:49 | 51.28031 | -0.85451 | 10491 ft | 337 kts | 144° |
| 2026-04-23 16:49 | 51.25423 | -0.82793 | 10164 ft | 322 kts | 144° |
| 2026-04-23 16:49 | 51.23603 | -0.80944 | 10026 ft | 308 kts | 144° |
| 2026-04-23 16:49 | 51.21828 | -0.79143 | 9901 ft | 296 kts | 144° |
| 2026-04-23 16:50 | 51.20124 | -0.77420 | 9765 ft | 284 kts | 144° |
| 2026-04-23 16:50 | 51.18480 | -0.75758 | 9536 ft | 277 kts | 144° |
| 2026-04-23 16:50 | 51.16861 | -0.74116 | 9382 ft | 276 kts | 144° |
| 2026-04-23 16:50 | 51.15360 | -0.72249 | 9253 ft | 272 kts | 127° |
| 2026-04-23 16:51 | 51.14350 | -0.69733 | 9122 ft | 268 kts | 117° |
| 2026-04-23 16:51 | 51.13460 | -0.67117 | 8783 ft | 270 kts | 116° |
| 2026-04-23 16:51 | 51.12867 | -0.65341 | 8370 ft | 267 kts | 116° |
| 2026-04-23 16:51 | 51.12020 | -0.62789 | 7785 ft | 262 kts | 116° |
| 2026-04-23 16:52 | 51.11175 | -0.60233 | 7192 ft | 259 kts | 116° |
| 2026-04-23 16:52 | 51.10344 | -0.57720 | 6603 ft | 255 kts | 116° |
| 2026-04-23 16:52 | 51.09522 | -0.55218 | 5997 ft | 254 kts | 116° |
| 2026-04-23 16:52 | 51.08715 | -0.52742 | 5385 ft | 251 kts | 114° |
| 2026-04-23 16:53 | 51.08352 | -0.50069 | 4772 ft | 247 kts | 86° |
| 2026-04-23 16:53 | 51.08901 | -0.47544 | 4168 ft | 244 kts | 59° |
| 2026-04-23 16:53 | 51.09984 | -0.45507 | 3570 ft | 242 kts | 46° |
| 2026-04-23 16:53 | 51.11292 | -0.43851 | 3098 ft | 234 kts | 41° |
| 2026-04-23 16:54 | 51.12178 | -0.41973 | 2941 ft | 199 kts | 83° |
| 2026-04-23 16:54 | 51.12090 | -0.39833 | 2716 ft | 193 kts | 95° |
| 2026-04-23 16:54 | 51.12216 | -0.37769 | 2420 ft | 185 kts | 79° |
| 2026-04-23 16:54 | 51.12482 | -0.35812 | 2178 ft | 178 kts | 78° |
| 2026-04-23 16:55 | 51.12744 | -0.33934 | 1922 ft | 169 kts | 77° |
| 2026-04-23 16:55 | 51.12988 | -0.32183 | 1728 ft | 155 kts | 77° |
| 2026-04-23 16:55 | 51.13214 | -0.30565 | 1492 ft | 145 kts | 78° |
| 2026-04-23 16:55 | 51.13420 | -0.29082 | 1328 ft | 128 kts | 77° |
| 2026-04-23 16:56 | 51.13599 | -0.27795 | 1141 ft | 113 kts | 77° |
| 2026-04-23 16:56 | 51.13769 | -0.26569 | 991 ft | 112 kts | 74° |
| 2026-04-23 16:56 | 51.13935 | -0.25371 | 824 ft | 109 kts | 77° |
| 2026-04-23 16:56 | 51.14102 | -0.24172 | 687 ft | 111 kts | 75° |
| 2026-04-23 16:57 | 51.14280 | -0.22890 | 570 ft | 129 kts | 75° |
| 2026-04-23 16:57 | 51.14459 | -0.21557 | 365 ft | 119 kts | 76° |
| 2026-04-23 16:57 | 51.14638 | -0.20298 | 228 ft | 110 kts | 74° |